createdAt,value
2022-11-29T00:01:16.516Z,20.60
2022-11-29T00:03:43.418Z,18.97
2022-11-29T00:06:14.847Z,20.53
2022-11-29T00:08:41.997Z,19.50
2022-11-29T00:11:12.800Z,21.23
2022-11-29T00:13:39.827Z,20.30
2022-11-29T00:16:10.678Z,17.50
2022-11-29T00:18:37.591Z,17.90
2022-11-29T00:21:10.178Z,20.07
2022-11-29T00:23:36.967Z,18.00
2022-11-29T00:26:07.100Z,17.77
2022-11-29T00:28:34.476Z,17.77
2022-11-29T00:31:01.448Z,18.47
2022-11-29T00:33:28.325Z,18.63
2022-11-29T00:35:55.131Z,23.03
2022-11-29T00:38:21.902Z,25.27
2022-11-29T00:40:52.765Z,22.40
2022-11-29T00:43:19.571Z,20.07
2022-11-29T00:45:46.365Z,19.40
2022-11-29T00:48:13.256Z,21.70
2022-11-29T00:50:40.098Z,19.93
2022-11-29T00:53:06.870Z,20.67
2022-11-29T00:55:33.645Z,19.67
2022-11-29T00:58:00.458Z,19.07
2022-11-29T01:00:27.253Z,20.03
2022-11-29T01:02:54.508Z,19.67
2022-11-29T01:05:21.311Z,21.33
2022-11-29T01:07:48.207Z,17.67
2022-11-29T01:10:15.013Z,19.13
2022-11-29T01:12:41.777Z,18.67
2022-11-29T01:15:09.256Z,21.53
2022-11-29T01:17:36.565Z,17.77
2022-11-29T01:20:04.422Z,18.93
2022-11-29T01:22:31.190Z,18.27
2022-11-29T01:24:58.028Z,21.93
2022-11-29T01:27:24.949Z,18.50
2022-11-29T01:29:51.718Z,21.00
2022-11-29T01:32:18.558Z,17.37
2022-11-29T01:34:45.528Z,17.23
2022-11-29T01:37:12.464Z,20.27
2022-11-29T01:39:39.445Z,17.53
2022-11-29T01:42:06.217Z,17.93
2022-11-29T01:44:33.061Z,20.70
2022-11-29T01:46:59.837Z,20.13
2022-11-29T01:49:42.920Z,17.27
2022-11-29T01:52:23.982Z,16.47
2022-11-29T01:54:52.530Z,17.70
2022-11-29T01:57:19.341Z,18.37
2022-11-29T01:59:50.791Z,17.13
2022-11-29T02:02:42.376Z,16.30
2022-11-29T02:05:09.541Z,17.47
2022-11-29T02:07:36.693Z,20.10
2022-11-29T02:10:03.882Z,21.97
2022-11-29T02:12:39.617Z,18.90
2022-11-29T02:15:28.044Z,18.90
2022-11-29T02:18:12.710Z,21.60
2022-11-29T02:21:09.264Z,19.20
2022-11-29T02:24:13.753Z,16.33
2022-11-29T02:26:59.164Z,20.60
2022-11-29T02:29:56.614Z,17.97
2022-11-29T02:32:42.157Z,18.10
2022-11-29T02:35:32.089Z,19.33
2022-11-29T02:38:21.628Z,18.07
2022-11-29T02:40:54.065Z,15.40
2022-11-29T02:43:39.015Z,18.27
2022-11-29T02:46:33.155Z,17.50
2022-11-29T02:49:22.384Z,19.90
2022-11-29T02:51:54.241Z,18.67
2022-11-29T02:54:26.205Z,19.13
2022-11-29T02:56:58.972Z,17.70
2022-11-29T03:00:08.129Z,22.30
2022-11-29T03:02:49.375Z,17.47
2022-11-29T03:05:39.667Z,18.20
2022-11-29T03:08:27.364Z,17.80
2022-11-29T03:11:10.986Z,17.30
2022-11-29T03:14:11.873Z,18.23
2022-11-29T03:16:43.819Z,16.63
2022-11-29T03:19:32.523Z,17.50
2022-11-29T03:22:13.177Z,16.27
2022-11-29T03:24:50.957Z,16.33
2022-11-29T03:27:23.162Z,16.97
2022-11-29T03:30:00.724Z,17.03
2022-11-29T03:32:51.833Z,17.43
2022-11-29T03:35:36.496Z,16.80
2022-11-29T03:38:28.364Z,17.73
2022-11-29T03:41:13.246Z,18.37
2022-11-29T03:43:53.396Z,18.47
2022-11-29T03:46:37.429Z,18.70
2022-11-29T03:49:24.550Z,19.53
2022-11-29T03:51:57.348Z,18.90
2022-11-29T03:54:56.125Z,21.37
2022-11-29T03:57:31.118Z,19.10
2022-11-29T04:00:02.062Z,17.83
2022-11-29T04:02:35.065Z,18.97
2022-11-29T04:05:16.558Z,17.57
2022-11-29T04:07:58.347Z,18.30
2022-11-29T04:10:37.332Z,17.37
2022-11-29T04:13:37.001Z,18.23
2022-11-29T04:16:51.793Z,18.10
2022-11-29T04:19:27.206Z,18.00
2022-11-29T04:21:56.897Z,18.80
2022-11-29T04:24:29.370Z,17.27
2022-11-29T04:27:33.109Z,17.87
2022-11-29T04:30:22.763Z,15.70
2022-11-29T04:33:13.659Z,15.83
2022-11-29T04:35:49.557Z,17.33
2022-11-29T04:38:40.656Z,18.60
2022-11-29T04:41:36.468Z,17.53
2022-11-29T04:44:21.935Z,17.83
2022-11-29T04:46:55.569Z,17.57
2022-11-29T04:49:44.982Z,17.77
2022-11-29T04:52:23.828Z,16.93
2022-11-29T04:55:26.200Z,16.07
2022-11-29T04:58:14.164Z,18.17
2022-11-29T05:01:06.909Z,17.40
2022-11-29T05:03:45.716Z,16.20
2022-11-29T05:06:19.334Z,16.43
2022-11-29T05:08:55.055Z,16.00
2022-11-29T05:11:26.879Z,17.03
2022-11-29T05:14:15.725Z,16.53
2022-11-29T05:17:13.245Z,15.37
2022-11-29T05:19:48.574Z,15.70
2022-11-29T05:22:44.325Z,17.40
2022-11-29T05:25:15.617Z,18.13
2022-11-29T05:28:10.266Z,16.63
2022-11-29T05:31:12.586Z,17.47
2022-11-29T05:34:06.381Z,15.40
2022-11-29T05:36:42.187Z,16.93
2022-11-29T05:39:37.053Z,16.33
2022-11-29T05:42:31.668Z,17.57
2022-11-29T05:45:08.559Z,17.67
2022-11-29T05:47:40.288Z,17.83
2022-11-29T05:50:12.597Z,17.40
2022-11-29T05:52:58.984Z,18.70
2022-11-29T05:55:49.998Z,20.00
2022-11-29T05:58:38.473Z,21.47
2022-11-29T06:01:43.107Z,18.63
2022-11-29T06:04:20.279Z,17.00
2022-11-29T06:06:48.260Z,20.20
2022-11-29T06:09:30.924Z,19.90
2022-11-29T06:12:10.417Z,18.43
2022-11-29T06:14:40.080Z,18.47
2022-11-29T06:17:39.395Z,17.97
2022-11-29T06:20:11.111Z,19.37
2022-11-29T06:23:13.439Z,18.00
2022-11-29T06:26:04.114Z,19.70
2022-11-29T06:29:07.902Z,17.67
2022-11-29T06:31:44.009Z,20.23
2022-11-29T06:34:11.138Z,17.27
2022-11-29T06:37:05.566Z,18.50
2022-11-29T06:39:32.759Z,18.57
2022-11-29T06:41:59.527Z,17.27
2022-11-29T06:44:26.620Z,19.33
2022-11-29T06:47:06.808Z,19.90
2022-11-29T06:49:42.164Z,19.10
2022-11-29T06:52:17.823Z,20.70
2022-11-29T06:54:53.893Z,22.70
2022-11-29T06:57:46.401Z,24.23
2022-11-29T07:00:22.770Z,23.17
2022-11-29T07:02:52.643Z,21.73
2022-11-29T07:05:35.099Z,24.07
2022-11-29T07:08:07.271Z,25.57
2022-11-29T07:10:37.092Z,21.97
2022-11-29T07:13:04.325Z,25.20
2022-11-29T07:15:31.792Z,25.57
2022-11-29T07:18:15.585Z,24.47
2022-11-29T07:20:49.740Z,19.63
2022-11-29T07:23:36.800Z,23.57
2022-11-29T07:26:19.980Z,22.57
2022-11-29T07:28:54.397Z,23.10
2022-11-29T07:31:42.988Z,21.73
2022-11-29T07:34:47.836Z,21.50
2022-11-29T07:37:14.829Z,20.37
2022-11-29T07:39:50.646Z,21.97
2022-11-29T07:42:37.388Z,20.47
2022-11-29T07:45:21.701Z,19.80
2022-11-29T07:47:49.597Z,20.40
2022-11-29T07:50:16.569Z,19.67
2022-11-29T07:52:43.553Z,20.43
2022-11-29T07:55:18.450Z,20.37
2022-11-29T07:57:46.169Z,20.00
2022-11-29T08:00:13.976Z,19.53
2022-11-29T08:02:40.941Z,20.30
2022-11-29T08:05:08.678Z,19.00
2022-11-29T08:07:36.472Z,19.63
2022-11-29T08:10:04.316Z,18.77
2022-11-29T08:12:31.323Z,20.70
2022-11-29T08:14:58.204Z,20.30
2022-11-29T08:17:25.965Z,20.93
2022-11-29T08:19:52.935Z,20.30
2022-11-29T08:22:19.785Z,22.63
2022-11-29T08:24:46.888Z,22.40
2022-11-29T08:27:13.869Z,22.17
2022-11-29T08:29:40.659Z,23.50
2022-11-29T08:32:09.063Z,24.57
2022-11-29T08:34:35.860Z,23.37
2022-11-29T08:37:02.632Z,23.13
2022-11-29T08:39:32.002Z,22.97
2022-11-29T08:41:58.838Z,26.67
2022-11-29T08:44:26.202Z,28.80
2022-11-29T08:47:11.817Z,24.03
2022-11-29T08:49:59.558Z,22.63
2022-11-29T08:52:44.755Z,19.67
2022-11-29T08:55:11.625Z,19.17
2022-11-29T08:57:40.584Z,21.80
2022-11-29T09:00:09.425Z,22.03
2022-11-29T09:02:36.587Z,24.03
2022-11-29T09:05:04.951Z,25.33
2022-11-29T09:07:31.792Z,26.07
2022-11-29T09:09:58.761Z,24.10
2022-11-29T09:12:25.567Z,24.47
2022-11-29T09:14:52.371Z,26.83
2022-11-29T09:17:19.205Z,24.53
2022-11-29T09:19:47.304Z,24.37
2022-11-29T09:22:14.138Z,26.50
2022-11-29T09:24:40.997Z,25.37
2022-11-29T09:27:07.865Z,24.80
2022-11-29T09:29:34.677Z,25.90
2022-11-29T09:32:01.995Z,23.77
2022-11-29T09:34:28.783Z,24.00
2022-11-29T09:36:55.626Z,24.90
2022-11-29T09:39:22.403Z,22.70
2022-11-29T09:42:14.910Z,21.60
2022-11-29T09:45:05.167Z,22.33
2022-11-29T09:47:33.137Z,23.47
2022-11-29T09:50:31.997Z,24.50
2022-11-29T09:53:22.913Z,25.97
2022-11-29T09:55:52.785Z,25.17
2022-11-29T10:11:59.993Z,18.35
2022-11-29T10:19:00.125Z,16.80
2022-11-29T10:27:52.140Z,19.40
2022-11-29T10:30:19.026Z,22.05
2022-11-29T10:35:24.220Z,22.03
2022-11-29T10:38:22.590Z,22.10
2022-11-29T10:40:39.593Z,20.63
2022-11-29T10:43:06.416Z,21.33
2022-11-29T10:45:45.995Z,21.13
2022-11-29T10:48:23.632Z,18.60
2022-11-29T10:50:51.270Z,19.97
2022-11-29T10:53:20.134Z,20.30
2022-11-29T10:55:52.090Z,22.50
2022-11-29T10:58:24.809Z,22.73
2022-11-29T11:01:07.974Z,22.07
2022-11-29T11:03:39.361Z,21.93
2022-11-29T11:12:18.109Z,16.40
2022-11-29T11:17:26.197Z,22.13
2022-11-29T11:20:05.787Z,21.97
2022-11-29T11:22:33.048Z,22.40
2022-11-29T11:25:07.932Z,20.33
2022-11-29T11:27:39.722Z,19.30
2022-11-29T11:30:22.862Z,19.23
2022-11-29T11:33:09.506Z,20.23
2022-11-29T11:35:37.360Z,20.37
2022-11-29T11:38:04.275Z,20.60
2022-11-29T11:40:31.461Z,19.63
2022-11-29T11:42:59.028Z,20.40
2022-11-29T11:45:32.986Z,19.57
2022-11-29T11:48:12.837Z,18.90
2022-11-29T11:50:44.761Z,14.35
2022-11-29T11:53:44.458Z,17.50
2022-11-29T11:58:49.775Z,20.80
2022-11-29T12:08:08.091Z,15.20
2022-11-29T12:10:35.418Z,19.87
2022-11-29T12:13:02.198Z,18.57
2022-11-29T12:15:34.112Z,17.87
2022-11-29T12:18:12.370Z,18.73
2022-11-29T12:20:57.325Z,17.80
2022-11-29T12:23:27.388Z,17.73
2022-11-29T12:26:04.350Z,18.77
2022-11-29T12:28:35.523Z,18.10
2022-11-29T12:34:43.602Z,16.70
2022-11-29T12:37:41.347Z,15.97
2022-11-29T12:40:28.295Z,14.40
2022-11-29T12:43:13.147Z,13.77
2022-11-29T12:45:55.821Z,13.03
2022-11-29T12:48:31.492Z,12.82
2022-11-29T12:51:13.214Z,12.23
2022-11-29T12:53:45.794Z,13.60
2022-11-29T12:56:24.136Z,13.50
2022-11-29T12:58:54.206Z,12.77
2022-11-29T13:01:42.611Z,13.23
2022-11-29T13:04:22.464Z,13.05
2022-11-29T13:06:56.339Z,12.23
2022-11-29T13:09:41.994Z,12.87
2022-11-29T13:12:33.079Z,12.53
2022-11-29T13:15:07.218Z,13.37
2022-11-29T13:18:09.581Z,13.70
2022-11-29T13:20:53.089Z,14.27
2022-11-29T13:23:46.000Z,14.00
2022-11-29T13:26:19.737Z,14.23
2022-11-29T13:28:46.719Z,16.90
2022-11-29T13:31:23.363Z,15.07
2022-11-29T13:34:07.701Z,17.15
2022-11-29T13:36:52.699Z,16.12
2022-11-29T13:42:35.463Z,17.52
2022-11-29T13:45:13.358Z,17.70
2022-11-29T13:48:42.818Z,15.68
2022-11-29T13:51:29.962Z,16.25
2022-11-29T13:54:45.159Z,16.50
2022-11-29T14:01:01.874Z,14.02
2022-11-29T14:07:33.329Z,14.88
2022-11-29T14:15:33.295Z,16.00
2022-11-29T14:18:01.214Z,21.07
2022-11-29T14:20:28.718Z,19.42
2022-11-29T14:23:04.649Z,20.57
2022-11-29T14:25:51.073Z,19.45
2022-11-29T14:28:18.683Z,18.97
2022-11-29T14:30:46.722Z,19.80
2022-11-29T14:33:34.498Z,22.47
2022-11-29T14:36:23.238Z,22.00
2022-11-29T14:38:52.817Z,21.17
2022-11-29T14:41:22.921Z,22.38
2022-11-29T14:43:49.700Z,28.47
2022-11-29T14:46:16.599Z,30.87
2022-11-29T14:48:57.034Z,31.80
2022-11-29T14:51:25.190Z,34.00
2022-11-29T14:54:12.256Z,33.53
2022-11-29T14:56:43.335Z,36.33
2022-11-29T14:59:49.481Z,40.27
2022-11-29T15:02:35.884Z,41.60
2022-11-29T15:05:13.561Z,45.10
2022-11-29T15:07:47.007Z,46.23
2022-11-29T15:10:18.173Z,47.67
2022-11-29T15:12:44.998Z,50.00
2022-11-29T15:15:32.953Z,47.57
2022-11-29T15:22:51.295Z,20.20
2022-11-29T15:25:32.994Z,46.03
2022-11-29T15:28:01.429Z,49.23
2022-11-29T15:30:41.305Z,46.33
2022-11-29T15:33:18.845Z,46.50
2022-11-29T15:35:50.415Z,45.53
2022-11-29T15:38:21.026Z,44.57
2022-11-29T15:40:55.245Z,45.63
2022-11-29T15:43:30.664Z,45.10
2022-11-29T15:45:58.200Z,44.63
2022-11-29T15:48:26.765Z,45.37
2022-11-29T15:51:00.204Z,46.73
2022-11-29T15:53:39.077Z,43.30
2022-11-29T15:56:20.484Z,46.80
2022-11-29T15:58:47.340Z,48.43
2022-11-29T16:01:20.676Z,39.67
2022-11-29T16:03:49.014Z,41.27
2022-11-29T16:06:33.200Z,40.47
2022-11-29T16:09:00.102Z,38.93
2022-11-29T16:11:27.878Z,40.87
2022-11-29T16:14:19.693Z,40.33
2022-11-29T16:16:47.658Z,37.80
2022-11-29T16:19:38.008Z,36.63
2022-11-29T16:22:11.920Z,38.97
2022-11-29T16:24:40.055Z,36.67
2022-11-29T16:27:07.001Z,35.20
2022-11-29T16:29:38.267Z,35.33
2022-11-29T16:32:31.549Z,33.00
2022-11-29T16:35:18.892Z,40.03
2022-11-29T16:37:45.875Z,37.17
2022-11-29T16:40:26.587Z,33.13
2022-11-29T16:43:24.093Z,35.33
2022-11-29T16:46:30.372Z,29.30
2022-11-29T16:48:58.333Z,35.40
2022-11-29T16:51:39.858Z,32.00
2022-11-29T16:54:27.433Z,37.47
2022-11-29T16:56:55.718Z,33.80
2022-11-29T16:59:28.046Z,37.27
2022-11-29T17:01:56.396Z,35.46
2022-11-29T17:04:24.840Z,36.80
2022-11-29T17:06:55.409Z,39.13
2022-11-29T17:30:36.318Z,36.33
2022-11-29T17:36:42.825Z,29.77
2022-11-29T17:43:13.279Z,25.80
2022-11-29T18:01:36.155Z,29.90
2022-11-29T18:16:17.697Z,31.38
2022-11-29T18:28:08.013Z,29.48
2022-11-29T18:30:48.865Z,33.47
2022-11-29T18:33:15.801Z,39.23
2022-11-29T18:35:42.629Z,38.60
2022-11-29T18:38:16.912Z,38.70
2022-11-29T18:40:45.727Z,40.50
2022-11-29T18:43:13.188Z,37.63
2022-11-29T18:45:40.075Z,34.30
2022-11-29T18:48:06.989Z,36.22
2022-11-29T18:50:33.749Z,34.80
2022-11-29T18:53:00.596Z,35.90
2022-11-29T18:55:27.470Z,34.33
2022-11-29T18:57:54.407Z,33.43
2022-11-29T19:00:21.672Z,33.80
2022-11-29T19:02:48.567Z,35.90
2022-11-29T19:07:48.505Z,30.47
2022-11-29T19:10:15.343Z,29.70
2022-11-29T19:12:42.132Z,29.47
2022-11-29T19:15:09.688Z,28.40
2022-11-29T19:17:41.687Z,28.87
2022-11-29T19:20:10.802Z,28.00
2022-11-29T19:22:37.563Z,30.73
2022-11-29T19:25:04.856Z,31.93
2022-11-29T19:27:31.927Z,33.60
2022-11-29T19:29:58.745Z,31.87
2022-11-29T19:32:25.505Z,31.97
2022-11-29T19:34:52.740Z,32.07
2022-11-29T19:37:19.556Z,33.37
2022-11-29T19:39:46.542Z,32.33
2022-11-29T19:42:13.553Z,32.97
2022-11-29T19:45:14.711Z,32.63
2022-11-29T19:47:27.420Z,16.20
2022-11-29T19:50:42.849Z,27.73
2022-11-29T19:53:10.393Z,32.53
2022-11-29T19:55:43.899Z,33.17
2022-11-29T19:58:11.052Z,33.20
2022-11-29T20:00:37.916Z,33.23
2022-11-29T20:03:04.745Z,33.43
2022-11-29T20:05:37.549Z,28.44
2022-11-29T20:09:00.263Z,32.06
2022-11-29T20:14:56.733Z,27.44
2022-11-29T20:17:39.652Z,27.15
2022-11-29T20:25:23.564Z,28.43
2022-11-29T20:32:00.605Z,27.23
2022-11-29T20:55:32.686Z,26.17
2022-11-29T21:14:05.912Z,23.50
2022-11-29T21:20:36.433Z,26.13
2022-11-29T21:39:09.534Z,27.38
2022-11-29T21:45:39.985Z,32.30
2022-11-29T21:48:27.872Z,27.73
2022-11-29T22:06:59.692Z,26.10
2022-11-29T22:13:30.184Z,28.48
2022-11-29T22:32:02.326Z,25.17
2022-11-29T22:38:32.946Z,29.35
2022-11-29T22:59:06.018Z,20.80
2022-11-29T23:05:32.257Z,24.20
2022-11-29T23:11:39.030Z,18.38
2022-11-29T23:18:09.480Z,21.60
2022-11-29T23:36:03.428Z,25.60
2022-11-29T23:42:15.508Z,27.45
2022-11-29T23:48:45.978Z,23.60
